Terminal Aerodrome Forecast
Issued by NWS Billings, MT

Home | Current Version | Previous Version | Text Only | Print | Product List | Glossary On
Versions: 1 2 3 4 5 6 7 8 9 10 11 12 13 14
000
FTUS45 KBYZ 161126
TAFSHR
TAF
KSHR 161126Z 1612/1712 30016KT P6SM VCSH FEW015 SCT050 OVC100
      TEMPO 1612/1615 4SM -SHRASN BKN025 OVC050
     FM162200 35007KT P6SM -SHRASN OVC050
     FM170700 28006KT P6SM OVC090=

USA.gov is the U.S. government's official web portal to all federal, state and local government web resources and services.